Portada
METAR-TAF:

METAR-TAF

Aeropuertos :

Huesca, España

Aeropuerto de Huesca-Pirineos

latitud: 42-04-32N, longitud: 0-18-58W, altitud: 539 m

Observación

El informe se hizo hace 28 minutos, a las 02:30 UTC
Viento 8 kt del oeste
Temperatura 2°C
Humedad 80%
Presión 1022 hPa
Visibilidad 10 km o más

METAR: LEHC 180230Z AUTO 26008KT 9999 NCD 02/M01 Q1022

Hora: 03:58 (02:58 UTC)

Pronóstico

El informe se hizo hace 58 minutos, a las 02:00 UTC
Pronóstico válido del 18 a las 03 UTC al 19 a las 03 UTC
Viento 4 kt con dirección variable
Visibilidad 10 km o más
Escasas nubes a una altura de 4000 ft
Probabilidad 30% :
Temporalmente
del 18 a las 05 UTC al 18 a las 09 UTC
Visibilidad: 4000 m
neblina
Evolucionando progresivamente
del 18 a las 14 UTC al 18 a las 16 UTC
Viento 12 kt del oeste-noroeste

TAF: LEHC 180200Z 1803/1903 VRB04KT 9999 FEW040 TX15/1814Z TN00/1806Z PROB30 TEMPO 1805/1809 4000 BR BECMG 1814/1816 30012KT

Observaciones y pronósticos meteorológicos de más de 4000 aeropuertos (mensajes METAR y TAF).

Los puntos amarillos y rojos representan las estaciones disponibles.

Ponga el ratón en el punto deseado para ver el nombre de la estación.

Haga clic para ver las observaciones y los pronósticos meteorológicos.

Para cambiar el mapa : haga clic en los botones verdes con una cruz de color negro para hacer un zoom, en el botón verde con un guión para alejar o en las flechas verdes para mapas adyacentes.


METAR-TAF: